Time;durP1;ratioP1;P1;durP2;ratioP2;P2;SDS_P1;SDS_P2;PMS_P1;PMS_P2;Temp;Humidity;BMP_temperature;BMP_pressure;BME280_temperature;BME280_humidity;BME280_pressure;Samples;Min_cycle;Max_cycle;Signal;HPM_P1;HPM_P2
2021/09/26 00:00:42;;;;;;;21.20;19.10;;;;;;;;;;5054120;28;20248;-64
2021/09/26 00:03:08;;;;;;;22.50;20.43;;;;;;;;;;5054383;28;20224;-63
2021/09/26 00:05:33;;;;;;;23.83;20.73;;;;;;;;;;5054283;28;20241;-62
2021/09/26 00:07:58;;;;;;;22.27;19.90;;;;;;;;;;5054550;28;20220;-63
2021/09/26 00:10:23;;;;;;;23.07;20.80;;;;;;;;;;5053855;28;20313;-62
2021/09/26 00:12:49;;;;;;;22.27;20.10;;;;;;;;;;5054417;28;20644;-64
2021/09/26 00:15:17;;;;;;;24.10;21.77;;;;;;;;;;5054127;28;20215;-65
2021/09/26 00:17:43;;;;;;;22.47;20.17;;;;;;;;;;5053788;28;20228;-64
2021/09/26 00:20:09;;;;;;;22.33;20.03;;;;;;;;;;5054040;28;20796;-63
2021/09/26 00:22:34;;;;;;;24.13;21.93;;;;;;;;;;5052561;28;20526;-64
2021/09/26 00:25:00;;;;;;;22.67;20.40;;;;;;;;;;5054258;28;20454;-63
2021/09/26 00:27:25;;;;;;;22.67;20.33;;;;;;;;;;5052927;28;20205;-63
2021/09/26 00:29:50;;;;;;;21.80;19.93;;;;;;;;;;5053977;28;20221;-64
2021/09/26 00:32:16;;;;;;;21.80;19.80;;;;;;;;;;5054183;28;20523;-65
2021/09/26 00:34:41;;;;;;;23.23;20.90;;;;;;;;;;5053586;28;20604;-63
2021/09/26 00:37:07;;;;;;;22.03;20.03;;;;;;;;;;5054069;28;20237;-65
2021/09/26 00:39:32;;;;;;;20.43;18.43;;;;;;;;;;5053607;28;20225;-63
2021/09/26 00:41:58;;;;;;;22.97;20.80;;;;;;;;;;5054335;28;20216;-64
2021/09/26 00:44:23;;;;;;;22.73;20.50;;;;;;;;;;5053811;28;20267;-62
2021/09/26 00:46:48;;;;;;;21.30;19.23;;;;;;;;;;5053439;28;20301;-63
2021/09/26 00:49:14;;;;;;;23.37;21.07;;;;;;;;;;5053877;28;20523;-63
2021/09/26 00:51:40;;;;;;;22.73;20.60;;;;;;;;;;5035770;28;20225;-64
2021/09/26 00:54:05;;;;;;;20.93;19.10;;;;;;;;;;5053607;28;20487;-63
2021/09/26 00:56:32;;;;;;;23.13;20.93;;;;;;;;;;5053343;28;20221;-63
2021/09/26 00:58:58;;;;;;;22.13;19.93;;;;;;;;;;5053748;28;20637;-63
2021/09/26 01:01:23;;;;;;;24.20;22.00;;;;;;;;;;5057693;28;20471;-63
2021/09/26 01:03:48;;;;;;;22.20;20.10;;;;;;;;;;5057660;28;20448;-63
2021/09/26 01:06:40;;;;;;;22.23;20.17;;;;;;;;;;5057811;28;20239;-64
2021/09/26 01:09:13;;;;;;;21.43;19.53;;;;;;;;;;5057929;28;20633;-64
2021/09/26 01:11:53;;;;;;;21.10;19.30;;;;;;;;;;5056267;28;20448;-64
2021/09/26 01:14:46;;;;;;;21.57;19.57;;;;;;;;;;5056593;28;20455;-63
2021/09/26 01:17:27;;;;;;;21.50;19.60;;;;;;;;;;5038019;28;20440;-64
2021/09/26 01:20:01;;;;;;;20.10;18.30;;;;;;;;;;5036362;28;20959;-63
2021/09/26 01:22:56;;;;;;;19.23;17.53;;;;;;;;;;5037620;28;20447;-63
2021/09/26 01:25:33;;;;;;;21.17;19.33;;;;;;;;;;5036332;28;20719;-64
2021/09/26 01:28:42;;;;;;;19.43;17.53;;;;;;;;;;5044800;28;20472;-64
2021/09/26 01:31:26;;;;;;;21.10;19.10;;;;;;;;;;5046688;28;20467;-64
2021/09/26 01:34:13;;;;;;;20.77;18.97;;;;;;;;;;5056226;28;20467;-65
2021/09/26 01:36:46;;;;;;;20.20;18.43;;;;;;;;;;5057331;28;20455;-63
2021/09/26 01:39:16;;;;;;;20.33;18.53;;;;;;;;;;5055729;28;20456;-63
2021/09/26 01:42:02;;;;;;;19.50;17.73;;;;;;;;;;5057439;28;20460;-64
2021/09/26 01:45:06;;;;;;;19.93;18.30;;;;;;;;;;5056342;28;20466;-63
2021/09/26 01:47:41;;;;;;;18.93;17.20;;;;;;;;;;5015140;28;20763;-63
2021/09/26 01:50:09;;;;;;;19.73;17.90;;;;;;;;;;5051658;28;20455;-64
2021/09/26 01:52:37;;;;;;;19.47;17.77;;;;;;;;;;5056568;28;21308;-63
2021/09/26 01:55:04;;;;;;;18.07;16.37;;;;;;;;;;5056174;28;20459;-64
2021/09/26 01:57:30;;;;;;;18.40;16.70;;;;;;;;;;5056849;28;20843;-64
2021/09/26 01:59:59;;;;;;;17.27;15.77;;;;;;;;;;5057043;28;20543;-64
2021/09/26 02:02:25;;;;;;;19.23;17.47;;;;;;;;;;5055582;28;20224;-64
2021/09/26 02:04:52;;;;;;;19.17;17.33;;;;;;;;;;5057183;28;20946;-64
2021/09/26 02:07:18;;;;;;;17.90;16.30;;;;;;;;;;5056391;28;20509;-63
2021/09/26 02:09:44;;;;;;;18.30;16.80;;;;;;;;;;5056760;28;20748;-63
2021/09/26 02:12:11;;;;;;;18.43;16.80;;;;;;;;;;5055196;28;20467;-64
2021/09/26 02:14:38;;;;;;;17.93;16.13;;;;;;;;;;5054933;28;21014;-63
2021/09/26 02:17:04;;;;;;;17.17;15.47;;;;;;;;;;5055597;28;20957;-64
2021/09/26 02:19:30;;;;;;;17.93;16.23;;;;;;;;;;5054925;28;20464;-63
2021/09/26 02:21:55;;;;;;;17.23;15.83;;;;;;;;;;5056673;28;20608;-64
2021/09/26 02:24:21;;;;;;;19.50;17.83;;;;;;;;;;5055990;28;20668;-63
2021/09/26 02:26:46;;;;;;;17.63;16.00;;;;;;;;;;5055559;28;20343;-64
2021/09/26 02:29:12;;;;;;;17.73;16.13;;;;;;;;;;5056155;28;20244;-64
2021/09/26 02:31:38;;;;;;;17.60;16.10;;;;;;;;;;5055667;28;20594;-64
2021/09/26 02:34:03;;;;;;;18.87;17.17;;;;;;;;;;5056278;28;20213;-65
2021/09/26 02:36:29;;;;;;;18.60;16.90;;;;;;;;;;5055931;28;20817;-63
2021/09/26 02:38:54;;;;;;;18.53;16.87;;;;;;;;;;5055915;28;20225;-64
2021/09/26 02:41:34;;;;;;;17.73;16.30;;;;;;;;;;5054858;28;20464;-63
2021/09/26 02:44:21;;;;;;;16.93;15.53;;;;;;;;;;5056222;28;20229;-65
2021/09/26 02:46:53;;;;;;;18.40;16.70;;;;;;;;;;5054425;28;20457;-64
2021/09/26 02:49:18;;;;;;;18.37;16.77;;;;;;;;;;5056053;28;20467;-63
2021/09/26 02:51:44;;;;;;;17.13;15.63;;;;;;;;;;5054559;28;20452;-64
2021/09/26 02:54:09;;;;;;;17.50;16.10;;;;;;;;;;5056146;28;20307;-63
2021/09/26 02:56:35;;;;;;;18.23;16.63;;;;;;;;;;5054520;28;20218;-64
2021/09/26 02:59:01;;;;;;;19.17;16.40;;;;;;;;;;5055650;28;20656;-64
2021/09/26 03:01:27;;;;;;;16.37;14.70;;;;;;;;;;5054142;28;20209;-64
2021/09/26 03:04:00;;;;;;;17.90;16.30;;;;;;;;;;5055592;28;20452;-64
2021/09/26 03:06:25;;;;;;;17.17;15.67;;;;;;;;;;5055499;28;20566;-63
2021/09/26 03:08:50;;;;;;;17.43;15.73;;;;;;;;;;5055638;28;20456;-64
2021/09/26 03:11:15;;;;;;;19.20;17.57;;;;;;;;;;5055177;28;20312;-64
2021/09/26 03:13:41;;;;;;;16.63;15.20;;;;;;;;;;5053982;28;20236;-64
2021/09/26 03:16:07;;;;;;;16.87;15.37;;;;;;;;;;5055383;28;20296;-64
2021/09/26 03:18:33;;;;;;;16.90;15.40;;;;;;;;;;5055043;28;20404;-63
2021/09/26 03:20:58;;;;;;;18.10;16.60;;;;;;;;;;5055153;28;20534;-63
2021/09/26 03:23:23;;;;;;;15.97;14.67;;;;;;;;;;5054636;28;20209;-64
2021/09/26 03:25:48;;;;;;;18.63;16.27;;;;;;;;;;5054848;28;20350;-65
2021/09/26 03:28:14;;;;;;;17.67;15.70;;;;;;;;;;5055091;28;20209;-64
2021/09/26 03:30:39;;;;;;;17.83;15.80;;;;;;;;;;5054766;28;20323;-63
2021/09/26 03:33:04;;;;;;;16.10;14.70;;;;;;;;;;5054971;28;20633;-64
2021/09/26 03:35:29;;;;;;;16.70;15.30;;;;;;;;;;5054815;28;20232;-62
2021/09/26 03:37:55;;;;;;;15.77;14.40;;;;;;;;;;5055090;28;20310;-63
2021/09/26 03:40:20;;;;;;;16.07;14.73;;;;;;;;;;5053994;28;20237;-63
2021/09/26 03:42:45;;;;;;;17.53;16.10;;;;;;;;;;5054678;28;20220;-64
2021/09/26 03:45:12;;;;;;;17.10;15.50;;;;;;;;;;5054883;28;20221;-65
2021/09/26 03:47:37;;;;;;;16.90;15.57;;;;;;;;;;5054536;28;20645;-64
2021/09/26 03:50:05;;;;;;;15.97;14.67;;;;;;;;;;5054761;28;20475;-64
2021/09/26 03:52:31;;;;;;;15.90;14.40;;;;;;;;;;5054326;28;20217;-64
2021/09/26 03:54:57;;;;;;;16.90;15.50;;;;;;;;;;5055047;28;20554;-63
2021/09/26 03:57:22;;;;;;;15.53;14.20;;;;;;;;;;5054822;28;20945;-65
2021/09/26 03:59:47;;;;;;;15.77;14.27;;;;;;;;;;5053977;28;20274;-63
2021/09/26 04:02:13;;;;;;;16.33;14.97;;;;;;;;;;5054857;28;20640;-63
2021/09/26 04:04:38;;;;;;;15.07;13.70;;;;;;;;;;5054483;28;20313;-63
2021/09/26 04:07:04;;;;;;;14.40;13.00;;;;;;;;;;5054535;28;20221;-63
2021/09/26 04:09:29;;;;;;;17.13;15.73;;;;;;;;;;5054125;28;20232;-62
2021/09/26 04:11:54;;;;;;;15.40;14.10;;;;;;;;;;5054147;28;20302;-64
2021/09/26 04:14:20;;;;;;;14.23;13.03;;;;;;;;;;5054572;28;20247;-63
2021/09/26 04:16:45;;;;;;;14.63;13.30;;;;;;;;;;5053744;28;20525;-64
2021/09/26 04:19:11;;;;;;;14.67;13.50;;;;;;;;;;5054373;28;20228;-64
2021/09/26 04:21:36;;;;;;;15.23;13.73;;;;;;;;;;5053744;28;20240;-64
2021/09/26 04:24:01;;;;;;;14.40;13.10;;;;;;;;;;5054235;28;20651;-64
2021/09/26 04:26:26;;;;;;;14.23;13.13;;;;;;;;;;5054350;28;20260;-63
2021/09/26 04:28:52;;;;;;;14.37;13.07;;;;;;;;;;5053779;28;20217;-63
2021/09/26 04:31:17;;;;;;;13.80;12.57;;;;;;;;;;5054153;28;20304;-64
2021/09/26 04:33:42;;;;;;;13.40;12.13;;;;;;;;;;5053445;28;20221;-63
2021/09/26 04:36:08;;;;;;;18.57;14.83;;;;;;;;;;5054069;28;20217;-63
2021/09/26 04:38:33;;;;;;;14.17;12.97;;;;;;;;;;5053412;28;20236;-63
2021/09/26 04:40:59;;;;;;;14.07;12.87;;;;;;;;;;5053912;28;20221;-63
2021/09/26 04:43:24;;;;;;;16.33;14.87;;;;;;;;;;5054130;28;20212;-64
2021/09/26 04:45:49;;;;;;;14.27;12.97;;;;;;;;;;5053464;28;20246;-64
2021/09/26 04:48:15;;;;;;;14.90;13.70;;;;;;;;;;5053844;28;20671;-64
2021/09/26 04:50:40;;;;;;;15.03;13.73;;;;;;;;;;5053437;28;20320;-64
2021/09/26 04:53:05;;;;;;;14.97;13.50;;;;;;;;;;5053127;28;20231;-63
2021/09/26 04:55:31;;;;;;;14.00;12.90;;;;;;;;;;5053403;28;20221;-62
2021/09/26 04:57:57;;;;;;;15.80;13.60;;;;;;;;;;5053794;28;20648;-64
2021/09/26 05:00:22;;;;;;;14.90;13.70;;;;;;;;;;5053711;28;20300;-64
2021/09/26 05:02:48;;;;;;;13.53;12.50;;;;;;;;;;5053475;28;20917;-64
2021/09/26 05:05:13;;;;;;;14.53;13.17;;;;;;;;;;5053883;28;20228;-64
2021/09/26 05:07:39;;;;;;;13.97;12.67;;;;;;;;;;5053259;28;20304;-61
2021/09/26 05:10:04;;;;;;;15.43;14.17;;;;;;;;;;5053494;28;20522;-64
2021/09/26 05:12:30;;;;;;;13.40;12.20;;;;;;;;;;5053832;28;20217;-63
2021/09/26 05:15:01;;;;;;;15.97;14.57;;;;;;;;;;5051915;28;20737;-64
2021/09/26 05:17:26;;;;;;;14.60;13.20;;;;;;;;;;5051706;28;20205;-63
2021/09/26 05:19:51;;;;;;;14.77;13.37;;;;;;;;;;5052910;28;20494;-63
2021/09/26 05:22:16;;;;;;;13.73;12.57;;;;;;;;;;5053784;28;20220;-64
2021/09/26 05:24:42;;;;;;;14.60;13.10;;;;;;;;;;5053070;28;20299;-63
2021/09/26 05:27:07;;;;;;;13.53;12.23;;;;;;;;;;5053617;28;20228;-65
2021/09/26 05:29:32;;;;;;;13.43;12.03;;;;;;;;;;5033193;28;20653;-63
2021/09/26 05:31:59;;;;;;;14.10;12.60;;;;;;;;;;5035346;28;20221;-61
2021/09/26 05:34:24;;;;;;;13.63;12.43;;;;;;;;;;5053397;28;20290;-63
2021/09/26 05:36:50;;;;;;;12.63;11.63;;;;;;;;;;5053181;28;20521;-63
2021/09/26 05:39:15;;;;;;;13.13;11.93;;;;;;;;;;5053315;28;20228;-63
2021/09/26 05:41:40;;;;;;;14.70;13.40;;;;;;;;;;5052889;28;20221;-62
2021/09/26 05:44:06;;;;;;;14.70;13.40;;;;;;;;;;5053278;28;20675;-63
2021/09/26 05:46:32;;;;;;;15.37;13.97;;;;;;;;;;5055612;28;20221;-63
2021/09/26 05:48:57;;;;;;;17.37;13.47;;;;;;;;;;5056642;28;20629;-62
2021/09/26 05:51:22;;;;;;;15.50;14.10;;;;;;;;;;5057000;28;20221;-63
2021/09/26 05:53:48;;;;;;;15.90;14.30;;;;;;;;;;5056932;28;20645;-62
2021/09/26 05:56:15;;;;;;;15.80;14.40;;;;;;;;;;5055988;28;20209;-63
2021/09/26 05:58:40;;;;;;;15.20;13.80;;;;;;;;;;5056382;28;20501;-63
2021/09/26 06:01:05;;;;;;;16.37;14.93;;;;;;;;;;5056768;28;20864;-63
2021/09/26 06:03:30;;;;;;;16.20;14.60;;;;;;;;;;5056949;28;20701;-63
2021/09/26 06:05:56;;;;;;;16.83;15.27;;;;;;;;;;5056326;28;20213;-62
2021/09/26 06:08:26;;;;;;;14.30;12.97;;;;;;;;;;5056877;28;20255;-63
2021/09/26 06:10:51;;;;;;;15.33;14.07;;;;;;;;;;5056076;28;20240;-63
2021/09/26 06:13:16;;;;;;;16.33;14.57;;;;;;;;;;5056537;28;20455;-62
2021/09/26 06:15:42;;;;;;;15.53;14.13;;;;;;;;;;5055813;28;20217;-63
2021/09/26 06:18:07;;;;;;;15.10;13.70;;;;;;;;;;5056619;28;20659;-63
2021/09/26 06:20:32;;;;;;;16.47;14.97;;;;;;;;;;5056315;28;20221;-63
2021/09/26 06:22:57;;;;;;;17.53;15.80;;;;;;;;;;5055811;28;20224;-63
2021/09/26 06:25:23;;;;;;;17.87;15.67;;;;;;;;;;5056503;28;20209;-63
2021/09/26 06:27:48;;;;;;;16.90;15.30;;;;;;;;;;5055795;28;20667;-63
2021/09/26 06:30:13;;;;;;;16.80;15.13;;;;;;;;;;5056195;28;20299;-62
2021/09/26 06:32:38;;;;;;;16.37;14.77;;;;;;;;;;5055878;28;20637;-62
2021/09/26 06:35:06;;;;;;;15.07;13.77;;;;;;;;;;5056388;28;20637;-63
2021/09/26 06:37:31;;;;;;;15.43;14.00;;;;;;;;;;5056119;28;20283;-64
2021/09/26 06:39:56;;;;;;;15.50;14.10;;;;;;;;;;5055524;28;20452;-62
2021/09/26 06:42:22;;;;;;;14.33;13.10;;;;;;;;;;5056089;28;20247;-63
2021/09/26 06:44:48;;;;;;;13.27;12.17;;;;;;;;;;5055620;28;20213;-63
2021/09/26 06:47:14;;;;;;;14.00;12.63;;;;;;;;;;5055823;28;20303;-63
2021/09/26 06:49:39;;;;;;;16.03;14.30;;;;;;;;;;5055638;28;20355;-62
2021/09/26 06:52:05;;;;;;;14.93;13.60;;;;;;;;;;5055820;28;20539;-63
2021/09/26 06:54:30;;;;;;;14.30;12.90;;;;;;;;;;5055696;28;20216;-63
2021/09/26 06:56:55;;;;;;;13.60;12.40;;;;;;;;;;5054477;28;20213;-63
2021/09/26 06:59:20;;;;;;;13.87;12.57;;;;;;;;;;5055323;28;20314;-63
2021/09/26 07:01:46;;;;;;;14.60;13.10;;;;;;;;;;5055095;28;20217;-63
2021/09/26 07:04:11;;;;;;;15.57;14.10;;;;;;;;;;5055725;28;20347;-63
2021/09/26 07:06:36;;;;;;;13.23;12.03;;;;;;;;;;5055677;28;20633;-63
2021/09/26 07:09:02;;;;;;;13.13;12.00;;;;;;;;;;5055507;28;20236;-63
2021/09/26 07:11:27;;;;;;;13.83;12.53;;;;;;;;;;5055312;28;20243;-63
2021/09/26 07:13:53;;;;;;;12.77;11.63;;;;;;;;;;5055359;28;20460;-63
2021/09/26 07:16:18;;;;;;;13.33;12.23;;;;;;;;;;5054343;28;20544;-63
2021/09/26 07:18:43;;;;;;;13.00;11.80;;;;;;;;;;5054943;28;20225;-63
2021/09/26 07:21:11;;;;;;;12.53;11.23;;;;;;;;;;5055238;28;20213;-63
2021/09/26 07:23:37;;;;;;;12.77;11.63;;;;;;;;;;5055008;28;20213;-63
2021/09/26 07:26:03;;;;;;;12.13;11.13;;;;;;;;;;5054836;28;20470;-63
2021/09/26 07:28:29;;;;;;;13.53;12.30;;;;;;;;;;5055229;28;20456;-63
2021/09/26 07:30:54;;;;;;;12.80;11.67;;;;;;;;;;5054773;28;20231;-63
2021/09/26 07:33:19;;;;;;;14.33;12.90;;;;;;;;;;5054999;28;20300;-63
2021/09/26 07:35:45;;;;;;;11.93;10.93;;;;;;;;;;5054627;28;20629;-62
2021/09/26 07:38:12;;;;;;;12.30;11.27;;;;;;;;;;5054947;28;20355;-62
2021/09/26 07:40:37;;;;;;;13.13;12.03;;;;;;;;;;5054951;28;20236;-63
2021/09/26 07:43:02;;;;;;;14.30;12.90;;;;;;;;;;5054292;28;20455;-62
2021/09/26 07:45:27;;;;;;;13.97;12.47;;;;;;;;;;5054802;28;20255;-62
2021/09/26 07:47:52;;;;;;;13.30;12.20;;;;;;;;;;5054075;28;20217;-62
2021/09/26 07:50:24;;;;;;;13.23;12.03;;;;;;;;;;5054718;28;20301;-63
2021/09/26 07:52:49;;;;;;;12.40;11.30;;;;;;;;;;5054225;28;20227;-63
2021/09/26 07:55:14;;;;;;;11.80;10.70;;;;;;;;;;5054664;28;20790;-63
2021/09/26 07:57:40;;;;;;;13.50;12.20;;;;;;;;;;5054552;28;20225;-62
2021/09/26 08:00:06;;;;;;;11.70;10.60;;;;;;;;;;5054020;28;20308;-62
2021/09/26 08:02:31;;;;;;;12.33;11.23;;;;;;;;;;5054194;28;20293;-63
2021/09/26 08:04:56;;;;;;;11.67;10.60;;;;;;;;;;5053924;28;20221;-62
2021/09/26 08:07:21;;;;;;;10.17;9.17;;;;;;;;;;5054560;28;20534;-62
2021/09/26 08:09:47;;;;;;;11.37;10.37;;;;;;;;;;5053530;28;20315;-62
2021/09/26 08:12:12;;;;;;;11.93;10.93;;;;;;;;;;5054012;28;20660;-63
2021/09/26 08:14:37;;;;;;;10.67;9.70;;;;;;;;;;5054187;28;20314;-63
2021/09/26 08:17:03;;;;;;;12.50;11.20;;;;;;;;;;5054048;28;20221;-63
2021/09/26 08:19:28;;;;;;;12.10;11.00;;;;;;;;;;5054023;28;20228;-63
2021/09/26 08:21:54;;;;;;;11.70;10.60;;;;;;;;;;5053684;28;20217;-63
2021/09/26 08:24:20;;;;;;;10.00;9.20;;;;;;;;;;5053903;28;20645;-63
2021/09/26 08:26:45;;;;;;;9.40;8.50;;;;;;;;;;5053608;28;20237;-63
2021/09/26 08:29:10;;;;;;;8.33;7.70;;;;;;;;;;5053904;28;20540;-63
2021/09/26 08:31:36;;;;;;;8.67;7.97;;;;;;;;;;5054026;28;20307;-62
2021/09/26 08:34:01;;;;;;;8.80;8.07;;;;;;;;;;5052275;28;20244;-62
2021/09/26 08:36:27;;;;;;;10.73;9.60;;;;;;;;;;5053834;28;20285;-62
2021/09/26 08:38:52;;;;;;;8.17;7.47;;;;;;;;;;5053787;28;20245;-63
2021/09/26 08:41:18;;;;;;;8.57;7.80;;;;;;;;;;5053889;28;20274;-63
2021/09/26 08:43:46;;;;;;;8.63;7.90;;;;;;;;;;5053737;28;20294;-62
2021/09/26 08:46:13;;;;;;;9.00;8.23;;;;;;;;;;5052476;28;20548;-62
2021/09/26 08:48:39;;;;;;;8.87;8.17;;;;;;;;;;5053700;28;20467;-63
2021/09/26 08:51:04;;;;;;;10.53;9.63;;;;;;;;;;5053166;28;20460;-63
2021/09/26 08:53:29;;;;;;;9.80;9.00;;;;;;;;;;5053847;28;20244;-63
2021/09/26 08:55:55;;;;;;;10.17;9.20;;;;;;;;;;5053316;28;20303;-63
2021/09/26 08:58:21;;;;;;;10.17;9.30;;;;;;;;;;5053653;28;20236;-62
2021/09/26 09:00:47;;;;;;;10.20;9.40;;;;;;;;;;5053695;28;20657;-62
2021/09/26 09:03:14;;;;;;;9.90;9.03;;;;;;;;;;5053552;28;20531;-63
2021/09/26 09:05:40;;;;;;;10.60;8.90;;;;;;;;;;5053712;28;20484;-62
2021/09/26 09:08:14;;;;;;;8.97;8.20;;;;;;;;;;5053349;28;20540;-62
2021/09/26 09:10:41;;;;;;;10.20;9.20;;;;;;;;;;5053269;28;20479;-62
2021/09/26 09:13:08;;;;;;;8.77;8.07;;;;;;;;;;5052942;28;20492;-62
2021/09/26 09:15:33;;;;;;;8.67;8.07;;;;;;;;;;5053646;28;20455;-62
2021/09/26 09:18:03;;;;;;;9.63;8.57;;;;;;;;;;5052484;28;21009;-63
2021/09/26 09:20:29;;;;;;;20.70;18.80;;;;;;;;;;5053920;28;20311;-62
2021/09/26 09:23:06;;;;;;;11.00;10.10;;;;;;;;;;5056982;28;20535;-61
2021/09/26 09:25:39;;;;;;;10.70;9.80;;;;;;;;;;5037431;28;20456;-62
2021/09/26 09:28:28;;;;;;;13.97;12.57;;;;;;;;;;5045049;28;20455;-62
2021/09/26 09:31:02;;;;;;;9.47;8.57;;;;;;;;;;5053923;28;20495;-62
2021/09/26 09:33:43;;;;;;;13.40;12.13;;;;;;;;;;5057472;28;21012;-62
2021/09/26 09:36:20;;;;;;;12.53;10.47;;;;;;;;;;5057303;28;20787;-63
2021/09/26 09:38:47;;;;;;;8.50;7.80;;;;;;;;;;5057610;28;20463;-62
2021/09/26 09:41:12;;;;;;;10.70;9.43;;;;;;;;;;5056582;28;20451;-62
2021/09/26 09:43:48;;;;;;;8.37;7.67;;;;;;;;;;5057122;28;20931;-62
2021/09/26 09:46:14;;;;;;;10.17;9.17;;;;;;;;;;5056865;28;20217;-63
2021/09/26 09:48:40;;;;;;;9.20;8.40;;;;;;;;;;5057226;28;20459;-62
2021/09/26 09:51:07;;;;;;;9.17;8.33;;;;;;;;;;5056493;28;20870;-61
2021/09/26 09:53:45;;;;;;;11.00;10.00;;;;;;;;;;5056861;28;20223;-62
2021/09/26 09:56:19;;;;;;;10.70;9.80;;;;;;;;;;5056706;28;20597;-61
2021/09/26 09:58:48;;;;;;;7.90;7.30;;;;;;;;;;5057031;28;20470;-62
2021/09/26 10:01:34;;;;;;;10.17;9.27;;;;;;;;;;5056290;28;20443;-63
2021/09/26 10:04:05;;;;;;;7.97;7.17;;;;;;;;;;5056237;28;20456;-62
2021/09/26 10:06:40;;;;;;;8.27;7.53;;;;;;;;;;5056964;28;20509;-62
2021/09/26 10:09:14;;;;;;;7.90;7.20;;;;;;;;;;5056170;28;20446;-62
2021/09/26 10:11:46;;;;;;;7.00;6.40;;;;;;;;;;5056297;28;20482;-62
2021/09/26 10:14:12;;;;;;;7.27;6.57;;;;;;;;;;5056044;28;20818;-62
2021/09/26 10:16:37;;;;;;;6.70;6.20;;;;;;;;;;5056487;28;20471;-62
2021/09/26 10:19:02;;;;;;;8.80;8.00;;;;;;;;;;5054954;28;20234;-62
2021/09/26 10:21:29;;;;;;;6.77;6.17;;;;;;;;;;5055347;28;20222;-63
2021/09/26 10:23:56;;;;;;;7.70;7.10;;;;;;;;;;5055877;28;20209;-61
2021/09/26 10:26:25;;;;;;;8.03;7.30;;;;;;;;;;5055319;28;20535;-62
2021/09/26 10:28:52;;;;;;;6.77;6.17;;;;;;;;;;5055232;28;20470;-63
2021/09/26 10:31:18;;;;;;;6.90;6.20;;;;;;;;;;5055628;28;20462;-63
2021/09/26 10:33:45;;;;;;;7.17;6.57;;;;;;;;;;5055447;28;20775;-63
2021/09/26 10:36:10;;;;;;;7.10;6.60;;;;;;;;;;5055936;28;20527;-63
2021/09/26 10:38:36;;;;;;;7.13;6.53;;;;;;;;;;5056231;28;20562;-62
2021/09/26 10:41:07;;;;;;;6.37;5.87;;;;;;;;;;5054907;28;20217;-60
2021/09/26 10:43:33;;;;;;;6.67;6.07;;;;;;;;;;5056234;28;20509;-64
2021/09/26 10:46:18;;;;;;;6.60;6.10;;;;;;;;;;5055963;28;20535;-65
2021/09/26 10:48:55;;;;;;;7.63;6.83;;;;;;;;;;5056051;28;20292;-64
2021/09/26 10:51:42;;;;;;;6.00;5.50;;;;;;;;;;5055227;28;20478;-64
2021/09/26 10:54:26;;;;;;;6.43;5.93;;;;;;;;;;5055597;28;20464;-63
2021/09/26 10:57:03;;;;;;;6.40;5.80;;;;;;;;;;5055733;28;20464;-62
2021/09/26 10:59:42;;;;;;;7.23;6.37;;;;;;;;;;5055054;28;20462;-62
2021/09/26 11:02:22;;;;;;;7.40;6.30;;;;;;;;;;5055341;28;20451;-62
2021/09/26 11:04:49;;;;;;;19.10;11.07;;;;;;;;;;5055559;28;20482;-61
2021/09/26 11:07:18;;;;;;;7.97;7.30;;;;;;;;;;5055265;28;20459;-62
2021/09/26 11:10:03;;;;;;;9.13;6.97;;;;;;;;;;5055650;28;20456;-62
2021/09/26 11:12:43;;;;;;;6.03;5.53;;;;;;;;;;5055081;28;20456;-61
2021/09/26 11:15:19;;;;;;;5.03;4.63;;;;;;;;;;5055008;28;20455;-62
2021/09/26 11:17:57;;;;;;;7.30;5.70;;;;;;;;;;5055682;28;20459;-62
2021/09/26 11:20:25;;;;;;;5.80;5.30;;;;;;;;;;5054799;28;20463;-62
2021/09/26 11:23:05;;;;;;;6.13;5.63;;;;;;;;;;5055329;28;20930;-62
2021/09/26 11:26:00;;;;;;;5.83;5.33;;;;;;;;;;5035223;28;20476;-63
2021/09/26 11:28:30;;;;;;;5.50;4.50;;;;;;;;;;5045733;28;20463;-62
2021/09/26 11:30:57;;;;;;;6.33;5.50;;;;;;;;;;5055397;28;20444;-61
2021/09/26 11:33:22;;;;;;;5.63;5.13;;;;;;;;;;5054724;28;20459;-61
2021/09/26 11:35:48;;;;;;;6.87;6.17;;;;;;;;;;5055167;28;20462;-61
2021/09/26 11:38:15;;;;;;;7.23;6.63;;;;;;;;;;5054661;28;20224;-62
2021/09/26 11:40:54;;;;;;;5.67;5.17;;;;;;;;;;5055073;28;20213;-62
2021/09/26 11:43:23;;;;;;;8.67;5.80;;;;;;;;;;5054153;28;20452;-61
2021/09/26 11:45:50;;;;;;;6.73;6.10;;;;;;;;;;5054963;28;20962;-61
2021/09/26 11:48:16;;;;;;;6.57;5.90;;;;;;;;;;5054384;28;20546;-61
2021/09/26 11:50:44;;;;;;;7.60;6.90;;;;;;;;;;5054689;28;20542;-61
2021/09/26 11:53:10;;;;;;;7.70;6.00;;;;;;;;;;5054556;28;20213;-61
2021/09/26 11:55:39;;;;;;;6.70;6.20;;;;;;;;;;5054631;28;20462;-62
2021/09/26 11:58:08;;;;;;;8.17;7.20;;;;;;;;;;5054901;28;20517;-61
2021/09/26 12:00:40;;;;;;;7.50;6.63;;;;;;;;;;5053861;28;20459;-61
2021/09/26 12:03:27;;;;;;;6.60;6.00;;;;;;;;;;5054851;28;20546;-61
2021/09/26 12:05:54;;;;;;;7.00;6.40;;;;;;;;;;5054226;28;20475;-60
2021/09/26 12:08:20;;;;;;;10.03;7.50;;;;;;;;;;5054524;28;20471;-62
2021/09/26 12:10:46;;;;;;;11.20;9.70;;;;;;;;;;5054265;28;20597;-62
2021/09/26 12:13:17;;;;;;;10.50;9.27;;;;;;;;;;5053120;28;20548;-61
2021/09/26 12:15:43;;;;;;;12.20;10.93;;;;;;;;;;5054045;28;20462;-61
2021/09/26 12:18:16;;;;;;;8.07;7.27;;;;;;;;;;5053989;28;20799;-61
2021/09/26 12:20:42;;;;;;;9.30;8.33;;;;;;;;;;5053212;28;20233;-62
2021/09/26 12:23:17;;;;;;;7.73;6.93;;;;;;;;;;5053916;28;20510;-62
2021/09/26 12:25:42;;;;;;;9.27;8.40;;;;;;;;;;5054254;28;20300;-62
2021/09/26 12:28:10;;;;;;;9.73;7.63;;;;;;;;;;5052481;28;20547;-61
2021/09/26 12:30:38;;;;;;;7.33;6.63;;;;;;;;;;5054095;28;20637;-62
2021/09/26 12:33:30;;;;;;;8.13;7.47;;;;;;;;;;5053866;28;20456;-61
2021/09/26 12:36:01;;;;;;;8.23;7.53;;;;;;;;;;5053547;28;20923;-61
2021/09/26 12:38:32;;;;;;;8.37;7.57;;;;;;;;;;5052622;28;20456;-60
2021/09/26 12:41:14;;;;;;;7.00;6.50;;;;;;;;;;5051622;28;21009;-61
2021/09/26 12:43:53;;;;;;;7.33;6.60;;;;;;;;;;5050600;28;20470;-61
2021/09/26 12:46:23;;;;;;;9.13;8.23;;;;;;;;;;5050487;28;20994;-60
2021/09/26 12:48:49;;;;;;;9.07;8.17;;;;;;;;;;5050662;28;20462;-61
2021/09/26 12:51:41;;;;;;;8.00;7.30;;;;;;;;;;5051172;28;20443;-61
2021/09/26 12:54:08;;;;;;;6.70;6.17;;;;;;;;;;5052599;28;20216;-61
2021/09/26 12:56:38;;;;;;;8.30;7.53;;;;;;;;;;5053036;28;20919;-61
2021/09/26 12:59:35;;;;;;;8.10;7.30;;;;;;;;;;5052134;28;20464;-61
2021/09/26 13:02:13;;;;;;;7.37;6.63;;;;;;;;;;5053110;28;20471;-61
2021/09/26 13:04:40;;;;;;;7.43;6.50;;;;;;;;;;5053946;28;20456;-61
2021/09/26 13:07:07;;;;;;;7.60;6.90;;;;;;;;;;5052353;28;20470;-61
2021/09/26 13:09:34;;;;;;;6.53;5.93;;;;;;;;;;5054012;28;20475;-61
2021/09/26 13:12:23;;;;;;;6.50;5.90;;;;;;;;;;5053270;28;20463;-62
2021/09/26 13:15:15;;;;;;;8.70;7.90;;;;;;;;;;5053425;28;20915;-61
2021/09/26 13:17:43;;;;;;;7.60;7.00;;;;;;;;;;5053405;28;20475;-61
2021/09/26 13:20:17;;;;;;;6.80;6.30;;;;;;;;;;5052573;28;20991;-61
2021/09/26 13:22:43;;;;;;;6.70;6.10;;;;;;;;;;5053146;28;20942;-61
2021/09/26 13:25:08;;;;;;;7.83;7.17;;;;;;;;;;5053776;28;20448;-61
2021/09/26 13:27:43;;;;;;;7.53;5.60;;;;;;;;;;5053599;28;20479;-61
2021/09/26 13:30:29;;;;;;;6.93;6.43;;;;;;;;;;5052470;28;21085;-61
2021/09/26 13:33:03;;;;;;;6.73;6.13;;;;;;;;;;5052929;28;20510;-62
2021/09/26 13:35:33;;;;;;;6.33;5.83;;;;;;;;;;5052532;28;20456;-61
2021/09/26 13:38:05;;;;;;;7.80;7.20;;;;;;;;;;5052257;28;20460;-62
2021/09/26 13:40:32;;;;;;;5.57;5.17;;;;;;;;;;5053370;28;20537;-60
2021/09/26 13:43:00;;;;;;;7.10;6.50;;;;;;;;;;5052899;28;20955;-62
2021/09/26 13:45:25;;;;;;;6.10;5.60;;;;;;;;;;5053449;28;20447;-61
2021/09/26 13:47:51;;;;;;;6.60;6.00;;;;;;;;;;5053144;28;20463;-61
2021/09/26 13:50:16;;;;;;;6.90;6.30;;;;;;;;;;5052005;28;20264;-61
2021/09/26 13:52:42;;;;;;;6.53;6.03;;;;;;;;;;5053548;28;20221;-61
2021/09/26 13:55:08;;;;;;;5.07;4.67;;;;;;;;;;5052862;28;20209;-61
2021/09/26 13:57:33;;;;;;;6.60;6.00;;;;;;;;;;5053495;28;20217;-61
2021/09/26 13:59:58;;;;;;;7.27;6.23;;;;;;;;;;5052710;28;20591;-62
2021/09/26 14:02:25;;;;;;;7.47;6.67;;;;;;;;;;5053483;28;20275;-61
2021/09/26 14:04:50;;;;;;;6.80;6.20;;;;;;;;;;5053149;28;20661;-61
2021/09/26 14:07:16;;;;;;;7.03;6.43;;;;;;;;;;5055012;28;20484;-62
2021/09/26 14:09:42;;;;;;;6.50;5.90;;;;;;;;;;5056640;28;20217;-62
2021/09/26 14:12:09;;;;;;;6.90;6.30;;;;;;;;;;5056100;28;20783;-61
2021/09/26 14:14:34;;;;;;;6.67;6.17;;;;;;;;;;5056985;28;20249;-61
2021/09/26 14:17:00;;;;;;;5.63;5.23;;;;;;;;;;5056077;28;20470;-61
2021/09/26 14:19:25;;;;;;;6.90;6.30;;;;;;;;;;5056531;28;20232;-61
2021/09/26 14:21:51;;;;;;;7.70;6.90;;;;;;;;;;5056109;28;20279;-61
2021/09/26 14:24:17;;;;;;;7.07;6.47;;;;;;;;;;5056509;28;20620;-61
2021/09/26 14:26:42;;;;;;;7.93;7.33;;;;;;;;;;5056575;28;20217;-62
2021/09/26 14:29:07;;;;;;;7.70;7.10;;;;;;;;;;5055984;28;20930;-62
2021/09/26 14:31:33;;;;;;;10.53;7.50;;;;;;;;;;5056275;28;20225;-61
2021/09/26 14:33:58;;;;;;;8.97;6.50;;;;;;;;;;5056104;28;20214;-60